createdAt,value
2023-01-30T00:03:35.371Z,6.17
2023-01-30T00:09:05.661Z,6.28
2023-01-30T00:14:34.785Z,6.70
2023-01-30T00:20:04.256Z,9.30
2023-01-30T00:25:34.634Z,8.60
2023-01-30T00:31:03.895Z,8.25
2023-01-30T00:36:33.255Z,5.82
2023-01-30T00:42:20.995Z,6.67
2023-01-30T00:47:50.531Z,6.35
2023-01-30T00:53:19.117Z,6.65
2023-01-30T00:58:49.297Z,6.37
2023-01-30T01:04:18.032Z,6.45
2023-01-30T05:13:05.093Z,14.63
2023-01-30T05:18:35.146Z,19.85
2023-01-30T05:24:03.391Z,20.70
2023-01-30T05:29:33.877Z,18.85
2023-01-30T05:34:56.888Z,18.30
2023-01-30T05:40:25.768Z,16.67
2023-01-30T05:45:55.436Z,16.25
2023-01-30T05:51:25.345Z,16.40
2023-01-30T05:56:54.841Z,19.83
2023-01-30T06:02:20.699Z,21.70
2023-01-30T06:07:43.721Z,26.23
2023-01-30T06:13:12.298Z,17.98
2023-01-30T06:18:37.327Z,20.35
2023-01-30T06:24:05.241Z,22.35
2023-01-30T06:29:28.357Z,18.73
2023-01-30T06:34:59.244Z,18.85
2023-01-30T06:40:22.956Z,22.65
2023-01-30T06:45:51.309Z,20.92
2023-01-30T06:51:21.954Z,23.85
2023-01-30T06:56:50.475Z,22.65
2023-01-30T07:02:15.241Z,21.73
2023-01-30T07:07:45.922Z,18.95
2023-01-30T07:13:15.029Z,21.88
2023-01-30T07:18:43.375Z,20.87
2023-01-30T07:24:14.148Z,21.60
2023-01-30T07:29:42.839Z,24.95
2023-01-30T07:35:11.802Z,22.47
2023-01-30T07:40:42.084Z,24.90
2023-01-30T07:46:10.495Z,26.77
2023-01-30T07:51:40.169Z,26.52
2023-01-30T07:57:10.810Z,24.30
2023-01-30T08:02:39.974Z,19.52
2023-01-30T08:08:08.654Z,18.25
2023-01-30T08:13:39.172Z,18.30
2023-01-30T08:19:08.556Z,18.42
2023-01-30T08:24:37.115Z,15.87
2023-01-30T08:30:08.484Z,17.52
2023-01-30T08:35:37.490Z,14.80
2023-01-30T08:41:08.308Z,16.05
2023-01-30T08:46:39.284Z,19.25
2023-01-30T08:52:09.013Z,12.48
2023-01-30T08:57:37.772Z,12.50
2023-01-30T09:03:07.756Z,10.33
2023-01-30T09:08:36.929Z,11.95
2023-01-30T09:14:05.396Z,10.93
2023-01-30T09:19:37.292Z,10.30
2023-01-30T09:25:08.221Z,15.93
2023-01-30T09:30:37.869Z,12.73
2023-01-30T09:36:09.106Z,10.00
2023-01-30T09:41:53.296Z,10.02
2023-01-30T09:47:31.697Z,10.13
2023-01-30T09:53:13.938Z,8.38
2023-01-30T09:58:48.880Z,8.82
2023-01-30T10:04:27.418Z,8.93
2023-01-30T14:20:07.794Z,6.93
2023-01-30T14:25:36.131Z,7.60
2023-01-30T14:31:01.607Z,6.93
2023-01-30T14:36:38.488Z,6.55
2023-01-30T14:42:20.037Z,6.45
2023-01-30T14:47:50.984Z,9.02
2023-01-30T14:53:22.978Z,9.68
2023-01-30T14:58:52.999Z,11.00
2023-01-30T15:04:21.191Z,10.77
2023-01-30T15:09:54.272Z,14.82
2023-01-30T15:15:26.213Z,14.75
2023-01-30T15:21:12.856Z,13.02
2023-01-30T15:26:53.309Z,14.25
2023-01-30T15:32:23.241Z,12.57
2023-01-30T15:37:51.080Z,11.25
2023-01-30T15:43:42.525Z,12.18
2023-01-30T15:49:41.229Z,13.68
2023-01-30T15:55:18.002Z,16.23
2023-01-30T16:00:51.185Z,15.35
2023-01-30T16:06:29.422Z,16.10
2023-01-30T16:11:58.437Z,13.43
2023-01-30T16:17:32.357Z,14.15
2023-01-30T16:23:01.279Z,15.55
2023-01-30T16:28:32.229Z,10.70
2023-01-30T16:34:02.798Z,14.52
2023-01-30T16:39:33.080Z,14.48
2023-01-30T16:45:43.201Z,14.55
2023-01-30T16:51:26.878Z,13.25
2023-01-30T16:56:59.088Z,15.02
2023-01-30T17:02:35.193Z,14.43
2023-01-30T17:08:05.964Z,15.82
2023-01-30T17:13:37.689Z,15.05
2023-01-30T17:19:03.247Z,14.93
2023-01-30T17:24:33.989Z,14.65
2023-01-30T17:30:04.021Z,14.43
2023-01-30T17:41:04.129Z,12.98
2023-01-30T17:46:36.858Z,13.25
2023-01-30T17:52:05.242Z,12.02
2023-01-30T17:57:35.527Z,12.52
2023-01-30T18:03:04.252Z,10.95
2023-01-30T18:08:33.384Z,10.43
2023-01-30T18:14:05.782Z,10.98
2023-01-30T18:19:35.510Z,11.40
2023-01-30T18:25:04.639Z,11.37
2023-01-30T18:30:34.650Z,9.40
2023-01-30T18:36:06.110Z,9.10
2023-01-30T18:41:35.740Z,9.90
2023-01-30T18:47:05.845Z,10.47
2023-01-30T18:52:34.493Z,9.70
2023-01-30T18:58:03.518Z,7.03
2023-01-30T19:03:33.991Z,6.47
2023-01-30T22:59:43.485Z,7.90
2023-01-30T23:05:10.024Z,6.72
2023-01-30T23:10:34.622Z,7.00
2023-01-30T23:16:02.479Z,6.28
2023-01-30T23:21:28.565Z,6.90
2023-01-30T23:26:53.242Z,6.45
2023-01-30T23:32:23.624Z,6.55
2023-01-30T23:38:08.940Z,6.75
2023-01-30T23:43:34.137Z,6.38
2023-01-30T23:49:06.869Z,5.82
2023-01-30T23:54:31.418Z,7.18
2023-01-30T23:59:53.587Z,6.47
